createdAt,value
2019-02-27T00:02:11.115Z,61.15
2019-02-27T00:04:57.058Z,61.16
2019-02-27T00:07:42.780Z,61.45
2019-02-27T00:10:28.153Z,60.65
2019-02-27T00:13:13.508Z,59.94
2019-02-27T00:15:59.278Z,61.14
2019-02-27T00:18:44.976Z,61.14
2019-02-27T00:21:30.409Z,61.33
2019-02-27T00:24:16.057Z,61.33
2019-02-27T00:27:01.366Z,62.07
2019-02-27T00:29:47.386Z,62.57
2019-02-27T00:32:32.942Z,62.57
2019-02-27T00:35:18.841Z,62.51
2019-02-27T00:38:04.786Z,63.64
2019-02-27T00:40:51.224Z,64.35
2019-02-27T00:43:36.859Z,64.35
2019-02-27T00:46:22.505Z,64.58
2019-02-27T00:49:08.178Z,63.91
2019-02-27T00:51:53.871Z,63.91
2019-02-27T00:54:39.383Z,63.47
2019-02-27T00:57:25.153Z,62.83
2019-02-27T01:00:13.578Z,62.95
2019-02-27T01:02:59.637Z,63.09
2019-02-27T01:05:45.021Z,62.67
2019-02-27T01:08:30.525Z,62.26
2019-02-27T01:11:18.226Z,62.04
2019-02-27T01:14:04.132Z,62.73
2019-02-27T01:16:50.871Z,63.42
2019-02-27T01:19:39.255Z,63.68
2019-02-27T01:22:23.952Z,64.20
2019-02-27T01:25:09.655Z,63.91
2019-02-27T01:27:55.191Z,63.91
2019-02-27T01:30:40.751Z,64.55
2019-02-27T01:33:26.063Z,64.55
2019-02-27T01:36:11.878Z,65.40
2019-02-27T01:38:57.210Z,66.37
2019-02-27T01:41:42.963Z,65.92
2019-02-27T01:44:28.500Z,65.50
2019-02-27T01:47:14.287Z,65.08
2019-02-27T01:49:59.900Z,65.48
2019-02-27T01:52:45.517Z,66.92
2019-02-27T01:55:30.912Z,67.04
2019-02-27T01:58:16.275Z,66.40
2019-02-27T02:01:01.830Z,66.40
2019-02-27T02:03:48.148Z,66.83
2019-02-27T02:06:33.549Z,65.36
2019-02-27T02:09:38.198Z,65.38
2019-02-27T02:12:27.200Z,66.02
2019-02-27T02:15:40.709Z,65.41
2019-02-27T02:19:11.308Z,65.04
2019-02-27T02:22:25.315Z,64.84
2019-02-27T02:25:56.095Z,65.70
2019-02-27T02:29:35.634Z,65.77
2019-02-27T02:32:53.197Z,66.02
2019-02-27T02:35:57.161Z,66.24
2019-02-27T02:39:30.483Z,66.68
2019-02-27T02:43:08.776Z,67.27
2019-02-27T02:46:08.059Z,66.26
2019-02-27T02:49:47.354Z,66.47
2019-02-27T02:52:56.517Z,67.31
2019-02-27T02:56:44.325Z,68.01
2019-02-27T03:00:23.159Z,68.41
2019-02-27T03:03:42.328Z,68.37
2019-02-27T03:06:59.649Z,68.57
2019-02-27T03:10:28.489Z,68.93
2019-02-27T03:13:41.952Z,68.79
2019-02-27T03:16:55.409Z,68.50
2019-02-27T03:20:16.805Z,69.40
2019-02-27T03:23:50.845Z,68.53
2019-02-27T03:26:57.048Z,68.46
2019-02-27T03:30:05.057Z,68.08
2019-02-27T03:33:27.655Z,68.18
2019-02-27T03:36:57.957Z,68.70
2019-02-27T03:40:28.483Z,67.31
2019-02-27T03:43:45.717Z,67.13
2019-02-27T03:46:46.147Z,68.25
2019-02-27T03:50:20.846Z,69.14
2019-02-27T03:53:43.205Z,68.42
2019-02-27T03:56:53.550Z,67.19
2019-02-27T04:00:21.042Z,66.74
2019-02-27T04:03:30.845Z,65.28
2019-02-27T04:06:43.635Z,65.09
2019-02-27T04:09:29.008Z,64.97
2019-02-27T04:12:16.421Z,64.71
2019-02-27T04:15:02.764Z,63.70
2019-02-27T04:17:51.903Z,62.88
2019-02-27T04:20:34.936Z,62.33
2019-02-27T04:23:20.252Z,61.60
2019-02-27T04:26:06.648Z,62.04
2019-02-27T04:28:52.458Z,61.94
2019-02-27T04:31:38.363Z,61.86
2019-02-27T04:34:23.562Z,61.80
2019-02-27T04:37:09.136Z,61.32
2019-02-27T04:39:54.631Z,61.60
2019-02-27T04:42:40.096Z,61.71
2019-02-27T04:45:25.658Z,62.09
2019-02-27T04:48:11.587Z,62.60
2019-02-27T04:50:57.286Z,62.68
2019-02-27T04:53:42.908Z,62.44
2019-02-27T04:56:28.653Z,61.63
2019-02-27T04:59:18.412Z,61.54
2019-02-27T05:02:01.679Z,61.37
2019-02-27T05:04:49.316Z,61.89
2019-02-27T05:07:34.672Z,63.15
2019-02-27T05:10:20.227Z,63.03
2019-02-27T05:13:05.896Z,62.08
2019-02-27T05:15:51.218Z,62.09
2019-02-27T05:18:36.896Z,63.89
2019-02-27T05:21:22.327Z,64.71
2019-02-27T05:24:08.567Z,66.99
2019-02-27T05:26:54.900Z,67.36
2019-02-27T05:29:40.554Z,67.60
2019-02-27T05:32:28.332Z,68.64
2019-02-27T05:35:13.771Z,68.25
2019-02-27T05:37:59.255Z,68.44
2019-02-27T05:40:44.923Z,68.25
2019-02-27T05:43:30.588Z,68.02
2019-02-27T05:46:16.166Z,68.02
2019-02-27T05:49:01.521Z,68.00
2019-02-27T05:51:47.088Z,66.83
2019-02-27T05:54:32.919Z,66.71
2019-02-27T05:57:22.911Z,65.55
2019-02-27T06:00:09.908Z,66.06
2019-02-27T06:02:56.770Z,66.51
2019-02-27T06:05:49.384Z,65.47
2019-02-27T06:08:29.767Z,64.28
2019-02-27T06:11:15.237Z,67.62
2019-02-27T06:14:00.735Z,67.65
2019-02-27T06:16:46.031Z,68.45
2019-02-27T06:19:33.703Z,69.48
2019-02-27T06:22:19.248Z,68.75
2019-02-27T06:25:05.472Z,66.71
2019-02-27T06:27:50.918Z,65.66
2019-02-27T06:30:36.463Z,68.46
2019-02-27T06:33:21.937Z,67.57
2019-02-27T06:36:07.795Z,68.15
2019-02-27T06:38:54.383Z,68.77
2019-02-27T06:41:40.227Z,67.57
2019-02-27T06:44:25.967Z,67.27
2019-02-27T06:47:12.312Z,67.24
2019-02-27T06:49:58.008Z,67.78
2019-02-27T06:52:43.438Z,67.57
2019-02-27T06:55:29.088Z,64.91
2019-02-27T06:58:15.426Z,63.14
2019-02-27T07:01:01.151Z,61.66
2019-02-27T07:03:47.526Z,58.36
2019-02-27T07:06:32.900Z,54.71
2019-02-27T07:09:18.276Z,52.17
2019-02-27T07:12:03.641Z,54.55
2019-02-27T07:14:48.976Z,53.04
2019-02-27T07:17:34.522Z,45.33
2019-02-27T07:20:23.814Z,45.00
2019-02-27T07:23:07.576Z,45.51
2019-02-27T07:25:52.908Z,44.59
2019-02-27T07:28:38.591Z,42.63
2019-02-27T07:31:24.292Z,43.17
2019-02-27T07:34:14.201Z,43.33
2019-02-27T07:36:57.317Z,44.13
2019-02-27T07:39:42.868Z,41.28
2019-02-27T07:42:31.900Z,39.44
2019-02-27T07:45:16.512Z,38.24
2019-02-27T07:48:02.209Z,37.96
2019-02-27T07:50:49.145Z,33.92
2019-02-27T07:53:35.215Z,32.57
2019-02-27T07:56:20.616Z,32.37
2019-02-27T07:59:05.942Z,34.86
2019-02-27T08:01:51.408Z,31.80
2019-02-27T08:04:36.688Z,32.63
2019-02-27T08:07:22.559Z,32.38
2019-02-27T08:10:11.135Z,35.16
2019-02-27T08:12:56.803Z,35.65
2019-02-27T08:15:42.646Z,34.44
2019-02-27T08:18:30.454Z,32.62
2019-02-27T08:21:15.788Z,33.91
2019-02-27T08:24:06.518Z,32.25
2019-02-27T08:26:49.381Z,31.70
2019-02-27T08:29:34.680Z,29.68
2019-02-27T08:32:20.352Z,31.24
2019-02-27T08:35:05.652Z,32.12
2019-02-27T08:37:51.030Z,30.26
2019-02-27T08:40:36.956Z,32.18
2019-02-27T08:43:23.384Z,32.86
2019-02-27T08:46:08.803Z,31.95
2019-02-27T08:48:54.412Z,31.68
2019-02-27T08:51:41.926Z,30.95
2019-02-27T08:54:27.273Z,30.37
2019-02-27T08:57:12.933Z,30.28
2019-02-27T08:59:58.652Z,28.28
2019-02-27T09:02:44.085Z,26.49
2019-02-27T09:05:29.736Z,26.98
2019-02-27T09:08:15.133Z,25.54
2019-02-27T09:11:05.524Z,25.39
2019-02-27T09:13:49.077Z,26.15
2019-02-27T09:16:35.045Z,25.91
2019-02-27T09:19:20.856Z,28.14
2019-02-27T09:22:06.595Z,30.05
2019-02-27T09:24:52.379Z,29.18
2019-02-27T09:27:37.776Z,27.95
2019-02-27T09:30:28.802Z,28.48
2019-02-27T09:33:11.643Z,27.65
2019-02-27T09:35:56.968Z,27.32
2019-02-27T09:38:42.640Z,27.06
2019-02-27T09:41:28.058Z,25.89
2019-02-27T09:44:14.289Z,26.10
2019-02-27T09:47:00.509Z,24.37
2019-02-27T09:49:46.105Z,23.08
2019-02-27T09:52:31.621Z,24.82
2019-02-27T09:55:20.183Z,23.90
2019-02-27T09:58:10.117Z,23.78
2019-02-27T10:00:59.215Z,24.62
2019-02-27T10:03:46.493Z,25.22
2019-02-27T10:06:31.876Z,24.68
2019-02-27T10:09:18.961Z,22.64
2019-02-27T10:12:04.825Z,21.90
2019-02-27T10:14:50.936Z,22.82
2019-02-27T10:17:36.985Z,23.25
2019-02-27T10:20:22.977Z,23.32
2019-02-27T10:23:08.289Z,22.46
2019-02-27T10:25:53.977Z,23.94
2019-02-27T10:28:39.865Z,25.49
2019-02-27T10:31:25.913Z,22.73
2019-02-27T10:34:14.595Z,23.46
2019-02-27T10:37:01.818Z,23.60
2019-02-27T10:39:48.289Z,22.80
2019-02-27T10:42:33.997Z,23.52
2019-02-27T10:45:20.405Z,24.41
2019-02-27T10:48:05.801Z,24.32
2019-02-27T10:50:51.597Z,23.14
2019-02-27T10:53:37.565Z,25.31
2019-02-27T10:56:24.281Z,24.15
2019-02-27T10:59:10.857Z,24.72
2019-02-27T11:01:56.397Z,23.41
2019-02-27T11:04:41.973Z,22.97
2019-02-27T11:07:27.605Z,23.39
2019-02-27T11:10:13.330Z,23.04
2019-02-27T11:12:58.753Z,23.50
2019-02-27T11:15:45.569Z,22.25
2019-02-27T11:18:31.521Z,23.14
2019-02-27T11:21:16.885Z,23.76
2019-02-27T11:24:03.041Z,23.15
2019-02-27T11:26:48.759Z,21.88
2019-02-27T11:29:34.061Z,22.42
2019-02-27T11:32:22.891Z,22.08
2019-02-27T11:35:07.211Z,22.00
2019-02-27T11:37:53.779Z,22.33
2019-02-27T11:40:42.637Z,21.94
2019-02-27T11:43:28.138Z,22.34
2019-02-27T11:46:14.002Z,23.35
2019-02-27T11:49:03.063Z,22.39
2019-02-27T11:51:47.866Z,23.84
2019-02-27T11:54:33.273Z,22.48
2019-02-27T11:57:18.957Z,23.11
2019-02-27T12:00:05.742Z,22.74
2019-02-27T12:02:51.437Z,23.09
2019-02-27T12:05:37.588Z,24.45
2019-02-27T12:08:25.773Z,23.28
2019-02-27T12:11:13.274Z,23.68
2019-02-27T12:13:58.209Z,23.55
2019-02-27T12:16:44.466Z,24.54
2019-02-27T12:19:29.818Z,23.28
2019-02-27T12:22:15.618Z,24.89
2019-02-27T12:25:00.937Z,23.96
2019-02-27T12:27:49.631Z,24.04
2019-02-27T12:30:37.488Z,24.25
2019-02-27T12:33:22.688Z,25.24
2019-02-27T12:36:09.054Z,24.94
2019-02-27T12:38:56.111Z,24.56
2019-02-27T12:41:41.979Z,25.52
2019-02-27T12:44:27.473Z,25.45
2019-02-27T12:47:13.259Z,25.15
2019-02-27T12:49:59.663Z,24.62
2019-02-27T12:52:47.927Z,24.53
2019-02-27T12:55:36.256Z,24.64
2019-02-27T12:58:21.100Z,25.40
2019-02-27T13:01:07.848Z,24.67
2019-02-27T13:03:53.640Z,23.94
2019-02-27T13:06:39.568Z,23.97
2019-02-27T13:09:25.343Z,24.00
2019-02-27T13:12:11.471Z,24.20
2019-02-27T13:14:57.283Z,23.12
2019-02-27T13:17:45.520Z,25.57
2019-02-27T13:20:31.516Z,24.94
2019-02-27T13:23:17.248Z,25.20
2019-02-27T13:26:03.283Z,24.01
2019-02-27T13:28:49.702Z,24.52
2019-02-27T13:31:35.388Z,25.62
2019-02-27T13:34:21.415Z,24.72
2019-02-27T13:37:10.069Z,26.55
2019-02-27T13:39:57.307Z,25.09
2019-02-27T13:42:44.896Z,24.75
2019-02-27T13:45:31.112Z,23.76
2019-02-27T13:48:17.176Z,23.45
2019-02-27T13:51:03.120Z,23.66
2019-02-27T13:53:49.124Z,24.11
2019-02-27T13:56:34.956Z,25.02
2019-02-27T13:59:20.564Z,27.14
2019-02-27T14:02:06.443Z,27.00
2019-02-27T14:04:53.823Z,25.86
2019-02-27T14:07:39.878Z,26.34
2019-02-27T14:10:26.669Z,25.60
2019-02-27T14:13:12.692Z,23.90
2019-02-27T14:16:00.755Z,23.86
2019-02-27T14:18:49.788Z,21.43
2019-02-27T14:21:35.491Z,25.34
2019-02-27T14:24:21.889Z,23.29
2019-02-27T14:27:07.639Z,22.90
2019-02-27T14:29:54.172Z,25.27
2019-02-27T14:32:39.700Z,25.30
2019-02-27T14:35:25.319Z,22.49
2019-02-27T14:38:11.076Z,23.49
2019-02-27T14:40:56.716Z,24.23
2019-02-27T14:43:42.436Z,22.38
2019-02-27T14:46:27.854Z,23.23
2019-02-27T14:49:14.026Z,21.76
2019-02-27T14:51:59.704Z,23.44
2019-02-27T14:54:44.912Z,23.75
2019-02-27T14:57:30.784Z,22.64
2019-02-27T15:00:20.655Z,24.36
2019-02-27T15:03:06.627Z,25.30
2019-02-27T15:05:52.767Z,27.52
2019-02-27T15:08:41.001Z,27.39
2019-02-27T15:11:26.603Z,29.02
2019-02-27T15:14:11.997Z,28.97
2019-02-27T15:16:57.309Z,29.78
2019-02-27T15:19:43.876Z,30.78
2019-02-27T15:22:29.882Z,30.70
2019-02-27T15:25:15.949Z,29.83
2019-02-27T15:28:01.715Z,30.51
2019-02-27T15:30:47.514Z,30.29
2019-02-27T15:33:35.900Z,30.62
2019-02-27T15:36:21.597Z,31.88
2019-02-27T15:39:08.173Z,31.38
2019-02-27T15:41:53.533Z,31.91
2019-02-27T15:44:38.977Z,32.94
2019-02-27T15:47:26.990Z,32.36
2019-02-27T15:50:15.221Z,33.48
2019-02-27T15:53:02.865Z,33.88
2019-02-27T15:55:48.825Z,34.31
2019-02-27T15:58:34.175Z,33.40
2019-02-27T16:01:19.597Z,33.28
2019-02-27T16:04:05.262Z,33.03
2019-02-27T16:06:51.270Z,33.00
2019-02-27T16:09:37.064Z,34.05
2019-02-27T16:12:25.453Z,34.29
2019-02-27T16:15:10.225Z,33.43
2019-02-27T16:17:56.002Z,34.10
2019-02-27T16:20:41.576Z,35.29
2019-02-27T16:23:27.265Z,34.49
2019-02-27T16:26:14.233Z,35.18
2019-02-27T16:29:00.257Z,35.78
2019-02-27T16:31:45.820Z,35.23
2019-02-27T16:34:33.100Z,34.68
2019-02-27T16:37:22.831Z,36.32
2019-02-27T16:40:06.986Z,36.33
2019-02-27T16:42:53.053Z,37.26
2019-02-27T16:45:38.833Z,38.50
2019-02-27T16:48:24.513Z,38.24
2019-02-27T16:51:10.040Z,38.12
2019-02-27T16:53:57.298Z,40.21
2019-02-27T16:56:46.225Z,41.71
2019-02-27T16:59:30.971Z,41.49
2019-02-27T17:02:16.986Z,41.99
2019-02-27T17:05:05.792Z,41.70
2019-02-27T17:07:49.890Z,44.65
2019-02-27T17:10:35.607Z,45.09
2019-02-27T17:13:21.103Z,45.47
2019-02-27T17:16:07.104Z,47.55
2019-02-27T17:18:54.494Z,47.36
2019-02-27T17:21:39.900Z,47.57
2019-02-27T17:24:25.251Z,47.35
2019-02-27T17:27:13.069Z,47.08
2019-02-27T17:30:00.083Z,46.11
2019-02-27T17:32:46.398Z,46.27
2019-02-27T17:35:32.098Z,46.39
2019-02-27T17:38:17.709Z,46.92
2019-02-27T17:41:03.110Z,46.43
2019-02-27T17:43:51.624Z,45.56
2019-02-27T17:46:36.039Z,46.28
2019-02-27T17:49:22.221Z,45.38
2019-02-27T17:52:11.498Z,45.68
2019-02-27T17:54:57.253Z,49.34
2019-02-27T17:57:46.173Z,47.89
2019-02-27T18:00:37.037Z,47.90
2019-02-27T18:03:22.764Z,47.65
2019-02-27T18:06:08.364Z,47.12
2019-02-27T18:08:54.000Z,47.77
2019-02-27T18:11:39.305Z,47.74
2019-02-27T18:14:26.140Z,46.88
2019-02-27T18:17:11.851Z,49.45
2019-02-27T18:19:57.220Z,48.69
2019-02-27T18:22:45.928Z,48.76
2019-02-27T18:25:30.744Z,49.60
2019-02-27T18:28:16.136Z,47.14
2019-02-27T18:31:03.980Z,45.07
2019-02-27T18:33:50.331Z,42.84
2019-02-27T18:36:42.580Z,41.39
2019-02-27T18:39:25.777Z,41.73
2019-02-27T18:42:11.637Z,42.23
2019-02-27T18:44:57.321Z,41.26
2019-02-27T18:47:43.193Z,41.31
2019-02-27T18:50:28.737Z,41.42
2019-02-27T18:53:14.379Z,41.78
2019-02-27T18:56:01.973Z,41.49
2019-02-27T18:58:47.389Z,41.76
2019-02-27T19:01:33.605Z,41.50
2019-02-27T19:04:19.317Z,41.51
2019-02-27T19:07:04.842Z,41.99
2019-02-27T19:09:50.457Z,42.63
2019-02-27T19:12:35.833Z,42.23
2019-02-27T19:15:22.102Z,42.42
2019-02-27T19:18:11.434Z,42.93
2019-02-27T19:20:59.147Z,43.07
2019-02-27T19:23:44.645Z,42.74
2019-02-27T19:26:30.329Z,43.44
2019-02-27T19:29:16.132Z,42.68
2019-02-27T19:32:03.193Z,42.87
2019-02-27T19:34:48.886Z,42.67
2019-02-27T19:37:36.423Z,42.18
2019-02-27T19:40:23.651Z,42.52
2019-02-27T19:43:12.060Z,42.58
2019-02-27T19:46:00.110Z,44.07
2019-02-27T19:48:45.657Z,44.73
2019-02-27T19:51:31.203Z,45.08
2019-02-27T19:54:18.570Z,46.18
2019-02-27T19:57:07.922Z,45.68
2019-02-27T19:59:51.586Z,47.13
2019-02-27T20:02:37.579Z,48.34
2019-02-27T20:05:23.319Z,48.59
2019-02-27T20:08:10.798Z,48.02
2019-02-27T20:10:56.292Z,49.26
2019-02-27T20:13:41.661Z,50.03
2019-02-27T20:16:27.146Z,51.21
2019-02-27T20:19:21.994Z,51.95
2019-02-27T20:22:00.670Z,53.19
2019-02-27T20:24:46.098Z,52.10
2019-02-27T20:27:31.684Z,52.56
2019-02-27T20:30:17.869Z,52.40
2019-02-27T20:33:03.240Z,51.96
2019-02-27T20:35:52.265Z,52.12
2019-02-27T20:38:37.270Z,51.29
2019-02-27T20:41:22.814Z,51.52
2019-02-27T20:44:08.408Z,50.38
2019-02-27T20:46:54.145Z,51.21
2019-02-27T20:49:39.438Z,51.19
2019-02-27T20:52:25.356Z,52.82
2019-02-27T20:55:11.456Z,52.28
2019-02-27T20:57:56.798Z,54.98
2019-02-27T21:00:42.478Z,55.87
2019-02-27T21:03:28.072Z,55.72
2019-02-27T21:06:13.948Z,56.51
2019-02-27T21:08:59.671Z,56.47
2019-02-27T21:11:45.186Z,57.46
2019-02-27T21:14:30.590Z,58.10
2019-02-27T21:17:16.496Z,57.95
2019-02-27T21:20:03.819Z,58.02
2019-02-27T21:22:49.243Z,58.38
2019-02-27T21:25:35.065Z,58.49
2019-02-27T21:28:21.270Z,57.87
2019-02-27T21:31:07.215Z,59.16
2019-02-27T21:33:53.642Z,59.06
2019-02-27T21:36:39.250Z,58.07
2019-02-27T21:39:27.723Z,56.85
2019-02-27T21:42:18.607Z,56.31
2019-02-27T21:45:03.687Z,58.33
2019-02-27T21:47:51.313Z,57.43
2019-02-27T21:50:39.587Z,57.40
2019-02-27T21:53:22.907Z,56.34
2019-02-27T21:56:08.545Z,54.32
2019-02-27T21:58:55.945Z,54.10
2019-02-27T22:01:41.347Z,54.35
2019-02-27T22:04:26.786Z,55.38
2019-02-27T22:07:13.444Z,55.70
2019-02-27T22:09:59.343Z,55.88
2019-02-27T22:12:45.471Z,55.90
2019-02-27T22:15:32.424Z,55.66
2019-02-27T22:18:18.023Z,56.26
2019-02-27T22:21:03.415Z,55.76
2019-02-27T22:23:49.071Z,55.87
2019-02-27T22:26:37.513Z,56.13
2019-02-27T22:29:21.983Z,56.57
2019-02-27T22:32:08.041Z,56.84
2019-02-27T22:34:53.287Z,56.78
2019-02-27T22:37:38.841Z,56.34
2019-02-27T22:40:24.491Z,56.10
2019-02-27T22:43:10.087Z,56.13
2019-02-27T22:45:56.084Z,56.41
2019-02-27T22:48:42.167Z,56.96
2019-02-27T22:51:28.049Z,57.46
2019-02-27T22:54:13.406Z,57.75
2019-02-27T22:56:59.000Z,58.43
2019-02-27T22:59:44.531Z,57.34
2019-02-27T23:02:29.935Z,57.38
2019-02-27T23:05:16.182Z,57.96
2019-02-27T23:08:01.859Z,58.92
2019-02-27T23:10:47.311Z,59.07
2019-02-27T23:13:33.294Z,59.39
2019-02-27T23:16:19.270Z,60.54
2019-02-27T23:19:05.196Z,61.61
2019-02-27T23:21:50.849Z,61.41
2019-02-27T23:24:36.316Z,61.84
2019-02-27T23:27:21.784Z,61.47
2019-02-27T23:30:07.927Z,61.93
2019-02-27T23:32:53.347Z,62.09
2019-02-27T23:35:38.731Z,63.02
2019-02-27T23:38:24.396Z,63.05
2019-02-27T23:41:10.109Z,63.79
2019-02-27T23:43:55.500Z,64.21
2019-02-27T23:46:48.773Z,64.42
2019-02-27T23:49:28.752Z,64.42
2019-02-27T23:52:14.184Z,64.52
2019-02-27T23:54:59.984Z,65.26
2019-02-27T23:57:47.152Z,65.26
